Time;durP1;ratioP1;P1;durP2;ratioP2;P2;SDS_P1;SDS_P2;PMS_P1;PMS_P2;Temp;Humidity;BMP_temperature;BMP_pressure;BME280_temperature;BME280_humidity;BME280_pressure;Samples;Min_cycle;Max_cycle;Signal;HPM_P1;HPM_P2
2022/03/01 00:02:02;;;;;;;2.65;1.08;;;12.30;71.70;;;;;;5089560;28;20091;-80
2022/03/01 00:04:28;;;;;;;1.83;0.90;;;12.30;71.70;;;;;;5089639;28;20024;-80
2022/03/01 00:06:54;;;;;;;0.98;0.80;;;12.20;71.60;;;;;;5071179;28;20028;-81
2022/03/01 00:09:20;;;;;;;1.20;0.80;;;12.20;71.60;;;;;;5071090;28;20040;-80
2022/03/01 00:11:46;;;;;;;1.70;1.20;;;12.20;71.60;;;;;;5054739;28;20826;-80
2022/03/01 00:14:12;;;;;;;1.40;1.00;;;12.20;71.60;;;;;;5071597;28;20031;-80
2022/03/01 00:16:38;;;;;;;1.90;1.23;;;12.10;71.40;;;;;;5089832;28;20024;-80
2022/03/01 00:19:04;;;;;;;1.67;1.20;;;12.20;71.60;;;;;;5070647;28;20059;-80
2022/03/01 00:21:31;;;;;;;1.90;1.33;;;12.20;71.60;;;;;;5089753;28;20446;-80
2022/03/01 00:23:57;;;;;;;2.63;1.20;;;12.10;71.40;;;;;;5089423;28;20848;-80
2022/03/01 00:26:24;;;;;;;2.08;1.50;;;12.10;71.40;;;;;;5090605;28;20255;-80
2022/03/01 00:28:50;;;;;;;2.10;1.30;;;12.10;71.40;;;;;;5071848;28;20054;-81
2022/03/01 00:31:16;;;;;;;2.55;1.50;;;12.10;71.30;;;;;;5089577;28;20309;-81
2022/03/01 00:33:42;;;;;;;3.38;1.70;;;12.10;71.30;;;;;;5089598;28;20032;-80
2022/03/01 00:36:09;;;;;;;2.58;1.58;;;12.10;71.30;;;;;;5089542;28;20052;-81
2022/03/01 00:38:36;;;;;;;2.83;1.67;;;12.10;71.30;;;;;;5071034;28;20043;-81
2022/03/01 00:41:02;;;;;;;2.30;1.83;;;12.10;71.30;;;;;;5089091;28;20111;-81
2022/03/01 00:43:28;;;;;;;1.65;1.30;;;12.10;71.30;;;;;;5088674;28;20064;-81
2022/03/01 00:45:54;;;;;;;2.33;1.58;;;12.10;71.20;;;;;;5089540;28;20032;-81
2022/03/01 00:48:21;;;;;;;2.88;2.00;;;12.00;71.10;;;;;;5090870;28;20047;-81
2022/03/01 00:50:47;;;;;;;1.95;1.67;;;12.00;71.10;;;;;;5089841;28;20024;-81
2022/03/01 00:53:13;;;;;;;2.28;1.98;;;12.00;71.10;;;;;;5072774;28;20028;-81
2022/03/01 00:55:40;;;;;;;1.98;1.75;;;12.00;71.10;;;;;;5091969;28;20051;-82
2022/03/01 00:58:06;;;;;;;3.15;1.90;;;11.90;71.00;;;;;;5102157;28;20386;-82
2022/03/01 01:00:34;;;;;;;1.48;1.27;;;11.90;71.00;;;;;;5093606;28;20036;-81
2022/03/01 01:03:01;;;;;;;2.70;1.58;;;11.90;71.00;;;;;;5114269;28;20047;-81
2022/03/01 01:05:27;;;;;;;2.22;1.50;;;11.90;71.00;;;;;;5097339;28;20083;-82
2022/03/01 01:07:53;;;;;;;2.75;1.90;;;11.90;71.00;;;;;;5114434;28;20088;-81
2022/03/01 01:10:20;;;;;;;3.67;1.75;;;11.80;70.80;;;;;;5097078;28;20048;-81
2022/03/01 01:12:46;;;;;;;3.58;2.10;;;11.80;70.80;;;;;;5099474;28;20437;-82
2022/03/01 01:15:15;;;;;;;2.42;1.90;;;11.80;70.80;;;;;;5094390;28;20552;-80
2022/03/01 01:17:41;;;;;;;3.05;2.42;;;11.80;70.90;;;;;;5091938;28;20031;-80
2022/03/01 01:20:08;;;;;;;3.33;1.88;;;11.70;70.70;;;;;;5072178;28;20479;-81
2022/03/01 01:22:40;;;;;;;1.73;1.63;;;11.70;70.70;;;;;;5090294;28;20107;-81
2022/03/01 01:25:12;;;;;;;3.33;1.90;;;11.70;70.70;;;;;;5055062;28;20036;-80
2022/03/01 01:27:41;;;;;;;3.70;2.00;;;11.70;70.70;;;;;;5071589;28;20093;-78
2022/03/01 01:30:10;;;;;;;2.17;1.83;;;11.70;70.70;;;;;;5071440;28;20051;-80
2022/03/01 01:32:36;;;;;;;5.88;2.65;;;11.70;70.70;;;;;;5089466;28;20028;-80
2022/03/01 01:35:03;;;;;;;3.55;1.85;;;11.60;70.50;;;;;;5070231;28;20024;-80
2022/03/01 01:37:29;;;;;;;4.35;1.85;;;11.60;70.50;;;;;;5088757;28;20097;-81
2022/03/01 01:39:55;;;;;;;4.18;2.33;;;11.60;70.50;;;;;;5070526;28;20562;-80
2022/03/01 01:42:22;;;;;;;6.22;2.70;;;11.60;70.50;;;;;;5088787;28;20081;-80
2022/03/01 01:44:48;;;;;;;2.80;1.73;;;11.60;70.60;;;;;;5088364;28;20439;-80
2022/03/01 01:47:14;;;;;;;2.97;1.77;;;11.50;70.40;;;;;;5088230;28;20135;-80
2022/03/01 01:49:40;;;;;;;3.60;1.90;;;11.50;70.40;;;;;;5088054;28;20127;-80
2022/03/01 01:52:07;;;;;;;3.13;2.10;;;11.50;70.40;;;;;;5088202;28;20058;-80
2022/03/01 01:54:33;;;;;;;3.72;2.13;;;11.40;70.20;;;;;;5088197;28;20126;-80
2022/03/01 01:56:59;;;;;;;5.30;2.42;;;11.40;70.30;;;;;;5088389;28;20077;-80
2022/03/01 01:59:25;;;;;;;4.15;2.20;;;11.40;70.30;;;;;;5087726;28;20533;-79
2022/03/01 02:01:51;;;;;;;2.20;1.73;;;11.40;70.30;;;;;;5069729;28;20024;-79
2022/03/01 02:04:17;;;;;;;3.42;1.98;;;11.30;70.20;;;;;;5087646;28;20030;-80
2022/03/01 02:06:51;;;;;;;4.07;2.13;;;11.30;70.20;;;;;;5088021;28;20027;-79
2022/03/01 02:09:17;;;;;;;3.08;1.65;;;11.30;70.30;;;;;;5069265;28;20479;-80
2022/03/01 02:11:43;;;;;;;4.20;2.15;;;11.20;70.10;;;;;;5087825;28;20024;-80
2022/03/01 02:14:09;;;;;;;2.78;2.13;;;11.20;70.20;;;;;;5087784;28;20085;-80
2022/03/01 02:16:36;;;;;;;4.10;2.33;;;11.20;70.20;;;;;;5069909;28;20023;-80
2022/03/01 02:19:04;;;;;;;3.72;2.38;;;11.20;70.20;;;;;;5069732;28;20076;-80
2022/03/01 02:21:31;;;;;;;4.35;2.08;;;11.10;70.10;;;;;;5087629;28;20035;-80
2022/03/01 02:23:57;;;;;;;3.90;2.13;;;11.10;70.10;;;;;;5088025;28;20093;-80
2022/03/01 02:26:23;;;;;;;3.03;2.72;;;11.10;70.10;;;;;;5069726;28;20032;-80
2022/03/01 02:28:49;;;;;;;6.55;3.72;;;11.10;70.20;;;;;;5069382;28;20418;-80
2022/03/01 02:31:16;;;;;;;4.78;2.63;;;11.00;70.00;;;;;;5087255;28;20035;-81
2022/03/01 02:33:42;;;;;;;6.15;2.85;;;11.00;70.00;;;;;;5087831;28;20032;-81
2022/03/01 02:36:07;;;;;;;4.13;3.05;;;11.00;70.10;;;;;;5087319;28;20028;-80
2022/03/01 02:38:34;;;;;;;4.85;2.78;;;10.90;69.90;;;;;;5087513;28;20376;-78
2022/03/01 02:41:00;;;;;;;6.30;2.72;;;10.90;70.00;;;;;;5087589;28;20028;-80
2022/03/01 02:43:26;;;;;;;5.90;2.75;;;10.90;70.00;;;;;;5087178;28;20115;-81
2022/03/01 02:45:52;;;;;;;5.70;3.25;;;10.80;69.90;;;;;;5087585;28;20116;-81
2022/03/01 02:48:18;;;;;;;5.22;2.85;;;10.80;69.90;;;;;;5090441;28;20147;-79
2022/03/01 02:50:44;;;;;;;4.05;2.97;;;10.80;69.90;;;;;;5090606;28;20081;-80
2022/03/01 02:53:10;;;;;;;5.97;3.03;;;10.80;70.00;;;;;;5090582;28;20469;-79
2022/03/01 02:55:36;;;;;;;5.40;2.88;;;10.70;69.80;;;;;;5072315;28;20533;-80
2022/03/01 02:58:02;;;;;;;5.28;2.80;;;10.70;69.90;;;;;;5090311;28;20028;-80
2022/03/01 03:00:29;;;;;;;4.78;3.10;;;10.70;70.00;;;;;;5090196;28;20476;-79
2022/03/01 03:02:55;;;;;;;6.57;3.05;;;10.60;69.80;;;;;;5090505;28;20482;-79
2022/03/01 03:05:21;;;;;;;6.80;3.30;;;10.60;69.80;;;;;;5090303;28;20028;-81
2022/03/01 03:07:47;;;;;;;6.45;3.75;;;10.60;69.80;;;;;;5090077;28;20119;-80
2022/03/01 03:10:13;;;;;;;4.93;2.92;;;10.60;69.90;;;;;;5090226;28;20105;-80
2022/03/01 03:12:40;;;;;;;5.65;3.63;;;10.50;69.70;;;;;;5072551;28;20028;-80
2022/03/01 03:15:06;;;;;;;6.25;2.80;;;10.50;69.70;;;;;;5076174;28;20058;-80
2022/03/01 03:17:32;;;;;;;5.82;3.15;;;10.50;69.70;;;;;;5075895;28;20089;-80
2022/03/01 03:19:58;;;;;;;6.75;3.10;;;10.50;69.70;;;;;;5075949;28;20503;-80
2022/03/01 03:22:24;;;;;;;5.10;3.38;;;10.50;69.70;;;;;;5094116;28;20180;-80
2022/03/01 03:24:50;;;;;;;8.27;3.17;;;10.50;69.80;;;;;;5094186;28;20024;-80
2022/03/01 03:27:16;;;;;;;6.22;2.80;;;10.50;69.80;;;;;;5093948;28;20074;-81
2022/03/01 03:29:42;;;;;;;7.80;3.13;;;10.40;69.60;;;;;;5093986;28;20499;-81
2022/03/01 03:32:08;;;;;;;7.47;3.45;;;10.40;69.60;;;;;;5094141;28;20089;-81
2022/03/01 03:34:34;;;;;;;7.50;2.92;;;10.40;69.60;;;;;;5076310;28;20059;-80
2022/03/01 03:37:00;;;;;;;5.60;2.67;;;10.40;69.60;;;;;;5059713;28;20024;-80
2022/03/01 03:39:26;;;;;;;9.18;3.00;;;10.40;69.70;;;;;;5093895;28;20028;-80
2022/03/01 03:41:52;;;;;;;8.60;3.78;;;10.30;69.50;;;;;;5093738;28;20028;-81
2022/03/01 03:44:18;;;;;;;8.27;2.85;;;10.30;69.50;;;;;;5093861;28;20629;-81
2022/03/01 03:46:45;;;;;;;6.50;2.78;;;10.30;69.50;;;;;;5075190;28;20133;-79
2022/03/01 03:49:11;;;;;;;9.45;4.32;;;10.20;69.40;;;;;;5093570;28;20040;-79
2022/03/01 03:51:37;;;;;;;5.90;2.65;;;10.20;69.40;;;;;;5093436;28;20031;-79
2022/03/01 03:54:03;;;;;;;10.57;3.30;;;10.20;69.40;;;;;;5093485;28;20032;-80
2022/03/01 03:56:29;;;;;;;9.55;3.28;;;10.20;69.40;;;;;;5075562;28;20067;-79
2022/03/01 03:58:57;;;;;;;6.57;2.88;;;10.20;69.40;;;;;;5058826;28;20103;-81
2022/03/01 04:01:23;;;;;;;7.80;3.75;;;10.20;69.40;;;;;;5075521;28;20036;-81
2022/03/01 04:03:51;;;;;;;7.32;3.60;;;10.20;69.40;;;;;;5075135;28;20039;-81
2022/03/01 04:06:17;;;;;;;8.40;3.05;;;10.20;69.40;;;;;;5093679;28;20035;-80
2022/03/01 04:08:43;;;;;;;6.78;3.85;;;10.20;69.40;;;;;;5077235;28;20036;-81
2022/03/01 04:11:09;;;;;;;9.38;2.42;;;10.10;69.30;;;;;;5077288;28;20372;-80
2022/03/01 04:13:35;;;;;;;6.50;2.90;;;10.20;69.40;;;;;;5076911;28;20075;-79
2022/03/01 04:16:02;;;;;;;8.93;3.55;;;10.10;69.20;;;;;;5076077;28;20028;-80
2022/03/01 04:18:29;;;;;;;9.35;4.35;;;10.10;69.30;;;;;;5075533;28;20108;-80
2022/03/01 04:20:55;;;;;;;11.48;3.60;;;10.10;69.30;;;;;;5093209;28;20039;-80
2022/03/01 04:23:21;;;;;;;10.35;4.28;;;10.10;69.30;;;;;;5075078;28;20024;-81
2022/03/01 04:25:47;;;;;;;10.88;3.75;;;10.10;69.20;;;;;;5093083;28;20073;-80
2022/03/01 04:28:13;;;;;;;13.55;4.45;;;10.10;69.30;;;;;;5092989;28;20036;-81
2022/03/01 04:30:39;;;;;;;8.45;3.40;;;10.10;69.30;;;;;;5093008;28;20034;-81
2022/03/01 04:33:05;;;;;;;7.60;4.38;;;10.00;69.10;;;;;;5092614;28;20036;-80
2022/03/01 04:35:31;;;;;;;9.68;3.95;;;10.00;69.10;;;;;;5092796;28;20024;-81
2022/03/01 04:37:57;;;;;;;9.75;3.63;;;10.00;69.10;;;;;;5074446;28;20108;-81
2022/03/01 04:40:23;;;;;;;9.98;4.10;;;10.00;69.20;;;;;;5074460;28;20556;-81
2022/03/01 04:42:49;;;;;;;13.30;4.57;;;10.00;69.20;;;;;;5074539;28;20101;-81
2022/03/01 04:45:16;;;;;;;9.57;3.80;;;9.90;69.00;;;;;;5092376;28;20456;-79
2022/03/01 04:47:42;;;;;;;10.80;3.83;;;9.90;69.00;;;;;;5092324;28;20048;-80
2022/03/01 04:50:09;;;;;;;10.45;3.00;;;9.90;69.00;;;;;;5092475;28;20119;-81
2022/03/01 04:52:35;;;;;;;7.68;2.97;;;9.90;69.00;;;;;;5074640;28;20024;-81
2022/03/01 04:55:02;;;;;;;8.85;3.13;;;9.90;69.10;;;;;;5092297;28;20445;-80
2022/03/01 04:57:28;;;;;;;9.15;3.00;;;9.90;69.10;;;;;;5092110;28;20479;-79
2022/03/01 04:59:54;;;;;;;8.90;3.40;;;9.90;69.10;;;;;;5092120;28;20507;-81
2022/03/01 05:02:21;;;;;;;8.60;3.15;;;9.90;69.10;;;;;;5074059;28;20024;-80
2022/03/01 05:04:47;;;;;;;12.02;3.50;;;9.80;68.90;;;;;;5084874;28;20024;-80
2022/03/01 05:07:13;;;;;;;11.10;3.78;;;9.80;68.90;;;;;;5072047;28;20035;-81
2022/03/01 05:09:39;;;;;;;10.93;3.97;;;9.80;68.90;;;;;;5071537;28;20033;-81
2022/03/01 05:12:05;;;;;;;8.57;3.17;;;9.80;68.90;;;;;;5053962;28;20101;-81
2022/03/01 05:14:31;;;;;;;11.27;3.95;;;9.80;68.90;;;;;;5071715;28;20036;-80
2022/03/01 05:16:57;;;;;;;8.25;3.03;;;9.80;68.90;;;;;;5053684;28;20028;-80
2022/03/01 05:19:23;;;;;;;7.40;3.70;;;9.80;68.90;;;;;;5071419;28;20035;-80
2022/03/01 05:21:49;;;;;;;13.43;3.58;;;9.80;68.90;;;;;;5071377;28;20032;-81
2022/03/01 05:24:15;;;;;;;13.48;3.72;;;9.70;68.70;;;;;;5053508;28;20035;-81
2022/03/01 05:26:41;;;;;;;11.27;3.85;;;9.80;68.90;;;;;;5053606;28;20189;-81
2022/03/01 05:29:07;;;;;;;9.45;3.45;;;9.80;68.90;;;;;;5071396;28;20127;-81
2022/03/01 05:31:34;;;;;;;7.55;3.67;;;9.80;68.90;;;;;;5071552;28;20162;-81
2022/03/01 05:34:00;;;;;;;11.45;4.40;;;9.80;69.00;;;;;;5071323;28;20032;-81
2022/03/01 05:36:26;;;;;;;10.10;3.85;;;9.70;68.80;;;;;;5070704;28;20028;-79
2022/03/01 05:38:52;;;;;;;10.10;3.75;;;9.70;68.80;;;;;;5053166;28;20024;-78
2022/03/01 05:41:20;;;;;;;10.98;3.40;;;9.80;69.00;;;;;;5071000;28;20078;-81
2022/03/01 05:43:46;;;;;;;11.75;4.35;;;9.70;68.80;;;;;;5071226;28;20046;-81
2022/03/01 05:46:12;;;;;;;9.52;3.78;;;9.70;68.80;;;;;;5069755;28;20375;-81
2022/03/01 05:48:38;;;;;;;10.32;4.10;;;9.70;68.90;;;;;;5079059;28;20056;-81
2022/03/01 05:51:06;;;;;;;11.00;4.88;;;9.70;68.90;;;;;;5088358;28;20664;-82
2022/03/01 05:53:32;;;;;;;10.82;3.88;;;9.80;69.00;;;;;;5069633;28;20088;-80
2022/03/01 05:55:58;;;;;;;9.55;3.42;;;9.80;69.00;;;;;;5067719;28;20020;-81
2022/03/01 05:58:25;;;;;;;9.90;3.47;;;9.70;68.80;;;;;;5067097;28;20036;-80
2022/03/01 06:00:51;;;;;;;11.60;4.50;;;9.80;69.00;;;;;;5069592;28;20031;-78
2022/03/01 06:03:17;;;;;;;11.35;5.00;;;9.80;69.00;;;;;;5085082;28;20048;-78
2022/03/01 06:05:43;;;;;;;13.52;4.35;;;9.80;69.00;;;;;;5049797;28;20031;-79
2022/03/01 06:08:09;;;;;;;9.80;3.88;;;9.80;69.00;;;;;;5063451;28;20057;-79
2022/03/01 06:10:35;;;;;;;8.25;4.28;;;9.90;69.20;;;;;;5067184;28;20051;-78
2022/03/01 06:13:01;;;;;;;13.07;5.15;;;9.90;69.20;;;;;;5068226;28;20036;-78
2022/03/01 06:15:27;;;;;;;7.82;3.88;;;9.90;69.20;;;;;;5068019;28;20128;-78
2022/03/01 06:17:53;;;;;;;8.80;3.58;;;9.90;69.20;;;;;;5068036;28;20025;-78
2022/03/01 06:20:19;;;;;;;9.02;4.28;;;9.90;69.20;;;;;;5079033;28;20368;-76
2022/03/01 06:22:45;;;;;;;14.63;4.40;;;10.00;69.30;;;;;;5067041;28;20059;-79
2022/03/01 06:25:12;;;;;;;11.48;5.10;;;10.00;69.40;;;;;;5069115;28;20016;-78
2022/03/01 06:27:39;;;;;;;10.20;3.63;;;10.00;69.40;;;;;;5067486;28;20039;-79
2022/03/01 06:30:07;;;;;;;7.95;3.42;;;10.00;69.60;;;;;;5062494;28;20085;-76
2022/03/01 06:32:33;;;;;;;8.30;4.35;;;10.10;70.10;;;;;;5087339;28;20032;-81
2022/03/01 06:35:00;;;;;;;8.77;4.15;;;10.10;70.20;;;;;;5073451;28;20040;-81
2022/03/01 06:37:26;;;;;;;11.68;3.92;;;10.20;70.40;;;;;;5048814;28;20434;-79
2022/03/01 06:39:53;;;;;;;8.60;4.50;;;10.20;70.40;;;;;;5087912;28;20032;-78
2022/03/01 06:42:19;;;;;;;15.15;5.88;;;10.20;70.40;;;;;;5087450;28;20090;-79
2022/03/01 06:44:45;;;;;;;11.32;4.20;;;10.20;70.50;;;;;;5077405;28;20445;-79
2022/03/01 06:47:11;;;;;;;8.18;4.32;;;10.10;70.30;;;;;;5050937;28;20059;-79
2022/03/01 06:49:38;;;;;;;9.95;4.85;;;10.10;70.30;;;;;;5089067;28;20460;-78
2022/03/01 06:52:04;;;;;;;10.88;4.63;;;10.10;70.40;;;;;;5091384;28;20115;-78
2022/03/01 06:54:31;;;;;;;11.05;5.50;;;10.10;70.40;;;;;;5091204;28;20119;-79
2022/03/01 06:56:57;;;;;;;12.10;4.78;;;10.10;70.40;;;;;;5089488;28;20056;-77
2022/03/01 06:59:26;;;;;;;11.10;5.05;;;10.10;70.40;;;;;;5087467;28;20490;-78
2022/03/01 07:01:53;;;;;;;10.40;4.78;;;10.10;70.40;;;;;;5092533;28;20028;-78
2022/03/01 07:04:19;;;;;;;11.25;4.85;;;10.10;70.40;;;;;;5075006;28;20123;-78
2022/03/01 07:06:45;;;;;;;11.90;5.32;;;10.00;70.20;;;;;;5075404;28;20039;-77
2022/03/01 07:09:11;;;;;;;8.95;5.47;;;10.10;70.30;;;;;;5077217;28;20391;-77
2022/03/01 07:11:37;;;;;;;9.13;5.25;;;10.00;70.10;;;;;;5071378;28;20345;-79
2022/03/01 07:14:03;;;;;;;11.68;5.07;;;10.00;70.20;;;;;;5071094;28;20094;-78
2022/03/01 07:16:29;;;;;;;8.60;5.22;;;10.00;70.10;;;;;;5070887;28;20025;-79
2022/03/01 07:18:55;;;;;;;7.68;4.47;;;10.00;70.10;;;;;;5070357;28;20093;-78
2022/03/01 07:21:22;;;;;;;10.13;5.38;;;10.00;70.10;;;;;;5072870;28;20028;-77
2022/03/01 07:23:48;;;;;;;11.35;6.07;;;10.00;70.00;;;;;;5052349;28;20486;-78
2022/03/01 07:26:14;;;;;;;12.02;6.38;;;10.00;70.00;;;;;;5052554;28;20032;-77
2022/03/01 07:28:40;;;;;;;13.35;5.95;;;10.00;70.00;;;;;;5070419;28;20139;-77
2022/03/01 07:31:06;;;;;;;10.02;5.53;;;10.00;69.90;;;;;;5077802;28;20028;-78
2022/03/01 07:33:32;;;;;;;11.98;6.32;;;10.00;69.80;;;;;;5080310;28;20600;-76
2022/03/01 07:35:58;;;;;;;11.52;5.47;;;10.10;70.00;;;;;;5071865;28;20439;-78
2022/03/01 07:38:24;;;;;;;13.50;6.40;;;10.10;69.90;;;;;;5082247;28;20037;-77
2022/03/01 07:40:50;;;;;;;9.48;5.85;;;10.10;69.80;;;;;;5070158;28;20032;-77
2022/03/01 07:43:16;;;;;;;11.82;6.05;;;10.10;69.80;;;;;;5052469;28;20032;-78
2022/03/01 07:45:42;;;;;;;9.77;5.97;;;10.10;69.70;;;;;;5052362;28;20155;-78
2022/03/01 07:48:10;;;;;;;10.25;6.35;;;10.20;69.90;;;;;;5072930;28;20135;-78
2022/03/01 07:50:37;;;;;;;12.05;6.30;;;10.20;69.80;;;;;;5084687;28;20051;-79
2022/03/01 07:53:03;;;;;;;12.30;6.07;;;10.20;69.70;;;;;;5090452;28;20028;-79
2022/03/01 07:55:29;;;;;;;12.35;6.90;;;10.20;69.70;;;;;;5071702;28;20387;-78
2022/03/01 07:57:55;;;;;;;12.20;5.95;;;10.20;69.60;;;;;;5072135;28;20058;-79
2022/03/01 08:00:24;;;;;;;13.73;7.00;;;10.20;69.50;;;;;;5071460;28;20031;-79
2022/03/01 08:02:52;;;;;;;11.38;7.75;;;10.20;69.50;;;;;;5089791;28;20040;-82
2022/03/01 08:05:18;;;;;;;11.90;6.70;;;10.30;69.60;;;;;;5090092;28;20020;-81
2022/03/01 08:07:44;;;;;;;19.58;7.63;;;10.30;69.50;;;;;;5089414;28;20123;-80
2022/03/01 08:10:10;;;;;;;10.75;6.07;;;10.30;69.40;;;;;;5089430;28;20096;-80
2022/03/01 08:12:36;;;;;;;14.73;7.13;;;10.30;69.40;;;;;;5089462;28;20028;-79
2022/03/01 08:15:03;;;;;;;12.90;7.38;;;10.30;69.40;;;;;;5090185;28;20036;-79
2022/03/01 08:17:29;;;;;;;15.95;8.00;;;10.30;69.30;;;;;;5071472;28;20024;-78
2022/03/01 08:19:55;;;;;;;13.20;7.05;;;10.40;69.40;;;;;;5071345;28;20141;-77
2022/03/01 08:22:21;;;;;;;14.20;7.53;;;10.40;69.30;;;;;;5071460;28;20038;-78
2022/03/01 08:24:47;;;;;;;12.52;6.70;;;10.50;69.40;;;;;;5071033;28;20028;-79
2022/03/01 08:27:13;;;;;;;10.43;7.43;;;10.50;69.30;;;;;;5089722;28;20099;-78
2022/03/01 08:29:39;;;;;;;10.25;7.22;;;10.60;69.30;;;;;;5070467;28;20131;-78
2022/03/01 08:32:05;;;;;;;15.75;7.22;;;10.60;69.20;;;;;;5069069;28;20035;-79
2022/03/01 08:34:31;;;;;;;12.20;7.30;;;10.70;69.20;;;;;;5051502;28;20648;-79
2022/03/01 08:36:57;;;;;;;14.80;7.30;;;10.70;69.10;;;;;;5050741;28;20425;-76
2022/03/01 08:39:23;;;;;;;10.77;7.72;;;10.80;69.20;;;;;;5050828;28;20186;-78
2022/03/01 08:41:53;;;;;;;8.20;6.90;;;10.80;69.00;;;;;;5075965;28;20034;-78
2022/03/01 08:44:19;;;;;;;12.75;7.25;;;10.90;69.10;;;;;;5088579;28;20119;-77
2022/03/01 08:46:45;;;;;;;11.90;7.90;;;10.90;68.90;;;;;;5053843;28;20043;-81
2022/03/01 08:49:11;;;;;;;11.68;7.50;;;11.00;69.00;;;;;;5054274;28;20491;-77
2022/03/01 08:51:37;;;;;;;13.80;7.53;;;11.00;68.90;;;;;;5089028;28;20032;-78
2022/03/01 08:54:03;;;;;;;16.38;8.20;;;11.10;68.90;;;;;;5089035;28;20090;-79
2022/03/01 08:56:29;;;;;;;13.50;7.35;;;11.10;68.90;;;;;;5089126;28;20119;-77
2022/03/01 08:58:55;;;;;;;17.17;7.25;;;11.20;69.50;;;;;;5088675;28;20405;-80
2022/03/01 09:01:21;;;;;;;15.32;7.22;;;11.50;70.20;;;;;;5089100;28;20085;-80
2022/03/01 09:03:47;;;;;;;19.83;9.13;;;11.70;70.40;;;;;;5089313;28;20070;-80
2022/03/01 09:06:14;;;;;;;12.75;7.60;;;11.80;70.30;;;;;;5070988;28;20028;-80
2022/03/01 09:08:40;;;;;;;14.48;9.02;;;12.00;70.30;;;;;;5070556;28;20511;-80
2022/03/01 09:11:10;;;;;;;17.83;9.50;;;12.00;70.10;;;;;;5070452;28;20126;-79
2022/03/01 09:13:38;;;;;;;16.05;8.13;;;12.10;70.10;;;;;;5088998;28;20032;-79
2022/03/01 09:16:05;;;;;;;12.80;8.00;;;12.20;70.10;;;;;;5087912;28;20043;-79
2022/03/01 09:18:32;;;;;;;17.20;8.18;;;12.20;70.10;;;;;;5059431;28;20529;-79
2022/03/01 09:20:58;;;;;;;14.05;7.88;;;12.20;70.00;;;;;;5088474;28;20548;-80
2022/03/01 09:23:24;;;;;;;14.20;8.20;;;12.30;70.00;;;;;;5088562;28;20478;-79
2022/03/01 09:25:50;;;;;;;14.52;7.47;;;12.30;70.00;;;;;;5070825;28;20043;-77
2022/03/01 09:28:17;;;;;;;11.15;5.95;;;12.40;70.30;;;;;;5088462;28;20036;-83
2022/03/01 09:30:45;;;;;;;12.65;6.38;;;12.50;70.50;;;;;;5069981;28;20467;-81
2022/03/01 09:33:11;;;;;;;11.32;7.50;;;12.70;70.70;;;;;;5070228;28;20035;-88
2022/03/01 09:35:37;;;;;;;12.10;7.55;;;12.70;70.40;;;;;;5088330;28;20028;-78
2022/03/01 09:38:03;;;;;;;13.35;7.78;;;12.80;70.40;;;;;;5083252;28;20082;-79
2022/03/01 09:40:29;;;;;;;15.13;6.90;;;12.90;70.40;;;;;;5067738;28;20025;-79
2022/03/01 09:42:55;;;;;;;14.60;6.70;;;12.90;70.30;;;;;;5049746;28;20032;-79
2022/03/01 09:45:22;;;;;;;12.80;7.68;;;13.00;70.30;;;;;;5068006;28;20033;-79
2022/03/01 09:47:48;;;;;;;12.77;7.10;;;13.00;70.70;;;;;;5067771;28;20052;-77
2022/03/01 09:50:15;;;;;;;10.52;6.63;;;13.00;70.10;;;;;;5067615;28;20561;-79
2022/03/01 09:52:42;;;;;;;11.38;6.75;;;13.10;70.10;;;;;;5050423;28;20115;-78
2022/03/01 09:55:08;;;;;;;12.57;7.05;;;13.10;70.00;;;;;;5067995;28;20559;-77
2022/03/01 09:57:34;;;;;;;16.88;10.02;;;13.10;69.80;;;;;;5067559;28;20095;-78
2022/03/01 10:00:01;;;;;;;9.90;6.93;;;13.20;69.90;;;;;;5051923;28;20031;-77
2022/03/01 10:02:41;;;;;;;12.85;6.82;;;13.20;69.70;;;;;;5069967;28;20498;-77
2022/03/01 10:05:09;;;;;;;11.77;8.18;;;13.20;69.60;;;;;;5051144;28;20071;-79
2022/03/01 10:07:35;;;;;;;14.32;8.32;;;13.20;69.50;;;;;;5068905;28;20032;-76
2022/03/01 10:10:10;;;;;;;12.00;7.32;;;13.30;69.50;;;;;;5068379;28;20411;-77
2022/03/01 10:12:36;;;;;;;16.65;8.80;;;13.30;69.40;;;;;;5049984;28;20020;-79
2022/03/01 10:15:10;;;;;;;11.68;6.90;;;13.40;69.40;;;;;;5068106;28;20474;-78
2022/03/01 10:17:42;;;;;;;11.45;6.80;;;13.40;69.10;;;;;;5033289;28;20442;-78
2022/03/01 10:20:20;;;;;;;16.17;7.70;;;13.50;69.10;;;;;;5067654;28;20024;-78
2022/03/01 10:22:48;;;;;;;9.00;6.65;;;13.60;69.00;;;;;;5067057;28;20029;-78
2022/03/01 10:25:16;;;;;;;15.68;8.77;;;13.70;69.00;;;;;;5049730;28;20025;-78
2022/03/01 10:27:44;;;;;;;11.45;7.63;;;13.70;68.80;;;;;;5073513;28;20124;-77
2022/03/01 10:30:11;;;;;;;11.65;7.25;;;13.80;68.70;;;;;;5077856;28;20040;-78
2022/03/01 10:32:37;;;;;;;15.05;8.88;;;13.90;68.70;;;;;;5095194;28;20031;-77
2022/03/01 10:35:08;;;;;;;9.68;7.88;;;13.90;68.50;;;;;;5103020;28;20028;-78
2022/03/01 10:37:36;;;;;;;10.20;7.60;;;13.90;68.40;;;;;;5098710;28;20035;-75
2022/03/01 10:40:20;;;;;;;13.15;6.88;;;14.00;68.40;;;;;;5095785;28;20123;-76
2022/03/01 10:43:15;;;;;;;13.00;7.35;;;14.00;68.20;;;;;;5054376;28;20028;-76
2022/03/01 10:45:44;;;;;;;10.27;7.47;;;14.10;68.30;;;;;;5088391;28;20107;-76
2022/03/01 10:48:12;;;;;;;12.15;7.32;;;14.10;68.20;;;;;;5070646;28;20125;-75
2022/03/01 10:50:40;;;;;;;9.98;8.20;;;14.10;68.10;;;;;;5053284;28;20059;-76
2022/03/01 10:53:06;;;;;;;11.15;7.10;;;14.10;68.00;;;;;;5088041;28;20502;-76
2022/03/01 10:55:34;;;;;;;11.60;7.82;;;14.20;68.00;;;;;;5087912;28;20055;-77
2022/03/01 10:58:10;;;;;;;11.30;6.45;;;14.20;67.90;;;;;;5087771;28;20024;-76
2022/03/01 11:00:38;;;;;;;10.20;7.20;;;14.20;67.70;;;;;;5087331;28;20589;-76
2022/03/01 11:03:05;;;;;;;11.00;6.95;;;14.30;67.80;;;;;;5087239;28;20051;-77
2022/03/01 11:05:33;;;;;;;11.13;7.18;;;14.30;67.60;;;;;;5087413;28;20382;-77
2022/03/01 11:08:04;;;;;;;10.27;6.82;;;14.30;67.50;;;;;;5086907;28;20031;-77
2022/03/01 11:10:32;;;;;;;10.50;7.72;;;14.40;67.50;;;;;;5068827;28;20028;-76
2022/03/01 11:13:01;;;;;;;12.23;7.63;;;14.40;67.40;;;;;;5068903;28;20031;-77
2022/03/01 11:15:42;;;;;;;10.20;6.95;;;14.40;67.30;;;;;;5035795;28;20035;-76
2022/03/01 11:18:23;;;;;;;11.38;7.22;;;14.40;67.30;;;;;;5086909;28;20471;-77
2022/03/01 11:20:50;;;;;;;11.40;7.00;;;14.40;67.20;;;;;;5086623;28;20510;-77
2022/03/01 11:23:22;;;;;;;12.13;7.72;;;14.40;67.20;;;;;;5052617;28;20185;-77
2022/03/01 11:25:48;;;;;;;10.35;7.32;;;14.40;67.10;;;;;;5086773;28;20077;-78
2022/03/01 11:28:16;;;;;;;12.25;7.30;;;14.40;67.00;;;;;;5045618;28;20032;-77
2022/03/01 11:30:51;;;;;;;11.05;6.85;;;14.40;67.00;;;;;;5066574;28;20170;-78
2022/03/01 11:33:35;;;;;;;12.00;7.65;;;14.40;66.90;;;;;;5066387;28;20037;-77
2022/03/01 11:36:03;;;;;;;10.60;7.22;;;14.30;66.60;;;;;;5069363;28;20161;-77
2022/03/01 11:38:32;;;;;;;13.38;7.35;;;14.30;66.70;;;;;;5070479;28;20512;-77
2022/03/01 11:41:11;;;;;;;10.77;7.40;;;14.30;66.70;;;;;;5051871;28;20025;-77
2022/03/01 11:43:38;;;;;;;14.48;8.05;;;14.20;66.50;;;;;;5070084;28;20273;-78
2022/03/01 11:46:15;;;;;;;10.93;7.68;;;14.20;66.50;;;;;;5051969;28;20069;-78
2022/03/01 11:48:51;;;;;;;12.52;7.97;;;14.20;66.40;;;;;;5069762;28;20094;-78
2022/03/01 11:51:17;;;;;;;12.40;7.07;;;14.10;66.40;;;;;;5052480;28;20113;-79
2022/03/01 11:53:49;;;;;;;10.05;6.75;;;14.10;66.40;;;;;;5068498;28;20039;-78
2022/03/01 11:56:18;;;;;;;12.25;8.13;;;14.20;66.60;;;;;;5034590;28;20028;-77
2022/03/01 11:58:49;;;;;;;10.13;6.90;;;14.10;66.50;;;;;;5051596;28;20093;-77
2022/03/01 12:01:19;;;;;;;11.88;7.78;;;14.10;66.40;;;;;;5051545;28;20029;-77
2022/03/01 12:03:49;;;;;;;11.95;7.38;;;14.10;66.50;;;;;;5070045;28;20029;-76
2022/03/01 12:06:21;;;;;;;12.40;7.07;;;14.10;66.50;;;;;;5069180;28;20029;-78
2022/03/01 12:08:56;;;;;;;12.45;7.88;;;14.10;66.50;;;;;;5051224;28;20036;-77
2022/03/01 12:11:36;;;;;;;11.43;7.82;;;14.00;66.30;;;;;;5069440;28;20119;-76
2022/03/01 12:14:08;;;;;;;7.85;4.00;;;14.00;66.40;;;;;;5069249;28;20036;-75
2022/03/01 12:16:35;;;;;;;7.07;4.28;;;13.90;66.40;;;;;;5069587;28;20035;-76
2022/03/01 12:19:32;;;;;;;8.45;5.15;;;13.90;66.70;;;;;;5069131;28;20076;-77
2022/03/01 12:22:00;;;;;;;8.23;5.20;;;13.90;67.00;;;;;;5060618;28;20039;-76
2022/03/01 12:24:28;;;;;;;8.73;4.93;;;14.00;67.10;;;;;;5069632;28;20024;-76
2022/03/01 12:26:57;;;;;;;8.60;5.82;;;14.00;67.10;;;;;;5078706;28;20110;-77
2022/03/01 12:29:36;;;;;;;10.02;5.97;;;14.00;67.00;;;;;;5089352;28;20032;-79
2022/03/01 12:32:09;;;;;;;10.77;6.18;;;13.90;66.90;;;;;;5089567;28;20035;-76
2022/03/01 12:34:37;;;;;;;8.93;6.35;;;13.90;66.90;;;;;;5071436;28;20032;-76
2022/03/01 12:37:07;;;;;;;7.47;5.20;;;13.90;66.90;;;;;;5089551;28;20020;-76
2022/03/01 12:39:35;;;;;;;12.40;5.38;;;13.80;66.80;;;;;;5055268;28;20119;-77
2022/03/01 12:42:01;;;;;;;8.75;5.80;;;13.80;66.90;;;;;;5069569;28;20091;-75
2022/03/01 12:44:30;;;;;;;9.35;5.95;;;13.80;66.90;;;;;;5068968;28;20035;-78